createdAt,value
2018-09-18T00:01:31.283Z,23.60
2018-09-18T00:04:01.337Z,23.60
2018-09-18T00:06:30.522Z,23.60
2018-09-18T00:08:59.080Z,23.60
2018-09-18T00:11:31.329Z,23.60
2018-09-18T00:13:59.866Z,23.60
2018-09-18T00:16:28.445Z,23.60
2018-09-18T00:18:57.009Z,23.60
2018-09-18T00:21:25.553Z,23.60
2018-09-18T00:23:54.190Z,23.60
2018-09-18T00:26:22.769Z,23.60
2018-09-18T00:28:52.501Z,23.60
2018-09-18T00:31:21.080Z,23.60
2018-09-18T00:33:49.612Z,23.60
2018-09-18T00:36:18.184Z,23.50
2018-09-18T00:38:47.025Z,23.50
2018-09-18T00:41:16.534Z,23.50
2018-09-18T00:43:45.155Z,23.40
2018-09-18T00:46:13.705Z,23.50
2018-09-18T00:48:42.288Z,23.50
2018-09-18T00:51:12.821Z,23.50
2018-09-18T00:53:45.456Z,23.50
2018-09-18T00:56:15.113Z,23.50
2018-09-18T00:58:43.724Z,23.50
2018-09-18T01:01:12.349Z,23.60
2018-09-18T01:03:44.073Z,23.60
2018-09-18T01:06:12.740Z,23.60
2018-09-18T01:08:41.413Z,23.60
2018-09-18T01:11:17.373Z,23.60
2018-09-18T01:13:47.084Z,23.60
2018-09-18T01:16:19.757Z,23.50
2018-09-18T01:18:52.169Z,23.60
2018-09-18T01:21:26.484Z,23.60
2018-09-18T01:23:55.321Z,23.60
2018-09-18T01:26:28.025Z,23.60
2018-09-18T01:28:56.585Z,23.50
2018-09-18T01:31:28.841Z,23.50
2018-09-18T01:33:57.457Z,23.40
2018-09-18T01:36:29.413Z,23.40
2018-09-18T01:39:01.204Z,23.40
2018-09-18T01:41:30.032Z,23.40
2018-09-18T01:43:58.577Z,23.40
2018-09-18T01:46:32.597Z,23.40
2018-09-18T01:49:01.165Z,23.40
2018-09-18T01:51:29.698Z,23.40
2018-09-18T01:53:58.232Z,23.40
2018-09-18T01:56:27.314Z,23.40
2018-09-18T01:58:56.656Z,23.40
2018-09-18T02:01:25.269Z,23.40
2018-09-18T02:03:53.825Z,23.40
2018-09-18T02:06:22.389Z,23.40
2018-09-18T02:08:50.929Z,23.40
2018-09-18T02:11:24.322Z,23.40
2018-09-18T02:13:58.849Z,23.40
2018-09-18T02:16:29.457Z,23.40
2018-09-18T02:18:58.177Z,23.40
2018-09-18T02:21:26.760Z,23.40
2018-09-18T02:23:55.294Z,23.40
2018-09-18T02:26:23.880Z,23.40
2018-09-18T02:28:52.517Z,23.40
2018-09-18T02:31:21.125Z,23.40
2018-09-18T02:33:49.700Z,23.40
2018-09-18T02:36:18.251Z,23.40
2018-09-18T02:38:46.832Z,23.40
2018-09-18T02:41:15.456Z,23.40
2018-09-18T02:43:44.001Z,23.50
2018-09-18T02:46:12.897Z,23.50
2018-09-18T02:48:41.637Z,23.50
2018-09-18T02:51:10.493Z,23.50
2018-09-18T02:53:39.249Z,23.50
2018-09-18T02:56:07.848Z,23.50
2018-09-18T02:58:36.449Z,23.50
2018-09-18T03:01:05.052Z,23.40
2018-09-18T03:03:33.613Z,23.40
2018-09-18T03:06:02.161Z,23.40
2018-09-18T03:08:30.709Z,23.40
2018-09-18T03:10:59.279Z,23.40
2018-09-18T03:13:28.317Z,23.40
2018-09-18T03:15:56.874Z,23.40
2018-09-18T03:18:25.463Z,23.40
2018-09-18T03:20:54.241Z,23.30
2018-09-18T03:23:22.783Z,23.30
2018-09-18T03:25:52.268Z,23.30
2018-09-18T03:28:20.885Z,23.20
2018-09-18T03:30:49.557Z,23.20
2018-09-18T03:33:18.169Z,23.20
2018-09-18T03:35:46.799Z,23.20
2018-09-18T03:38:16.328Z,23.20
2018-09-18T03:40:44.912Z,23.20
2018-09-18T03:43:13.465Z,23.20
2018-09-18T03:45:42.025Z,23.20
2018-09-18T03:48:10.616Z,23.20
2018-09-18T03:50:39.188Z,23.20
2018-09-18T03:53:07.848Z,23.20
2018-09-18T03:55:36.389Z,23.20
2018-09-18T03:58:04.961Z,23.20
2018-09-18T04:00:33.548Z,23.10
2018-09-18T04:03:02.125Z,23.10
2018-09-18T04:05:30.669Z,23.10
2018-09-18T04:07:59.240Z,23.10
2018-09-18T04:10:27.869Z,23.10
2018-09-18T04:12:56.432Z,23.10
2018-09-18T04:15:25.076Z,23.10
2018-09-18T04:17:54.129Z,23.10
2018-09-18T04:20:22.873Z,23.00
2018-09-18T04:22:51.413Z,23.00
2018-09-18T04:25:20.049Z,23.00
2018-09-18T04:27:48.661Z,23.00
2018-09-18T04:30:17.248Z,23.00
2018-09-18T04:32:45.836Z,23.00
2018-09-18T04:35:15.448Z,23.00
2018-09-18T04:37:44.040Z,22.90
2018-09-18T04:40:12.671Z,23.00
2018-09-18T04:42:41.331Z,22.90
2018-09-18T04:45:09.915Z,22.90
2018-09-18T04:47:39.584Z,22.90
2018-09-18T04:50:08.172Z,22.90
2018-09-18T04:52:36.794Z,22.90
2018-09-18T04:55:05.474Z,22.90
2018-09-18T04:57:34.092Z,22.90
2018-09-18T05:00:03.736Z,22.90
2018-09-18T05:02:32.348Z,22.90
2018-09-18T05:05:00.970Z,22.90
2018-09-18T05:07:29.591Z,23.10
2018-09-18T05:09:58.259Z,22.90
2018-09-18T05:12:26.862Z,22.90
2018-09-18T05:14:55.493Z,22.90
2018-09-18T05:17:24.136Z,22.90
2018-09-18T05:19:52.899Z,22.90
2018-09-18T05:22:21.565Z,23.00
2018-09-18T05:24:50.216Z,23.00
2018-09-18T05:27:18.826Z,23.00
2018-09-18T05:29:47.448Z,23.00
2018-09-18T05:32:16.061Z,23.00
2018-09-18T05:34:44.643Z,23.00
2018-09-18T05:37:13.257Z,23.10
2018-09-18T05:39:41.843Z,23.10
2018-09-18T05:42:10.432Z,23.10
2018-09-18T05:44:39.183Z,23.10
2018-09-18T05:47:08.523Z,23.20
2018-09-18T05:49:37.255Z,23.30
2018-09-18T05:52:06.019Z,23.40
2018-09-18T05:54:34.635Z,23.50
2018-09-18T05:57:03.271Z,23.60
2018-09-18T05:59:31.919Z,23.70
2018-09-18T06:02:00.585Z,23.80
2018-09-18T06:04:29.332Z,24.00
2018-09-18T06:06:58.148Z,24.10
2018-09-18T06:09:28.109Z,24.20
2018-09-18T06:11:56.732Z,24.30
2018-09-18T06:14:25.391Z,24.40
2018-09-18T06:16:54.015Z,24.60
2018-09-18T06:19:22.872Z,24.70
2018-09-18T06:21:52.244Z,24.80
2018-09-18T06:24:21.044Z,24.90
2018-09-18T06:26:49.671Z,25.00
2018-09-18T06:29:18.363Z,25.20
2018-09-18T06:31:46.990Z,25.30
2018-09-18T06:34:16.563Z,25.40
2018-09-18T06:36:45.238Z,25.50
2018-09-18T06:39:13.856Z,25.60
2018-09-18T06:41:42.531Z,25.70
2018-09-18T06:44:11.131Z,25.80
2018-09-18T06:46:41.280Z,25.90
2018-09-18T06:49:13.113Z,26.00
2018-09-18T06:51:42.312Z,26.00
2018-09-18T06:54:10.923Z,26.10
2018-09-18T06:56:39.508Z,26.20
2018-09-18T06:59:09.107Z,26.30
2018-09-18T07:01:37.713Z,26.40
2018-09-18T07:04:06.347Z,26.40
2018-09-18T07:06:35.030Z,26.50
2018-09-18T07:09:04.436Z,26.50
2018-09-18T07:11:33.955Z,26.60
2018-09-18T07:14:02.711Z,26.60
2018-09-18T07:16:31.345Z,26.50
2018-09-18T07:19:00.011Z,26.50
2018-09-18T07:21:28.632Z,26.50
2018-09-18T07:23:58.311Z,26.50
2018-09-18T07:26:26.918Z,26.50
2018-09-18T07:28:55.583Z,26.50
2018-09-18T07:31:24.227Z,26.50
2018-09-18T07:33:55.138Z,26.40
2018-09-18T07:36:25.415Z,26.40
2018-09-18T07:38:54.091Z,26.30
2018-09-18T07:41:22.727Z,26.40
2018-09-18T07:43:51.413Z,26.50
2018-09-18T07:46:20.258Z,26.60
2018-09-18T07:48:50.335Z,26.80
2018-09-18T07:51:19.003Z,27.00
2018-09-18T07:53:47.619Z,27.30
2018-09-18T07:56:16.246Z,27.50
2018-09-18T07:58:44.851Z,27.70
2018-09-18T08:01:14.353Z,27.90
2018-09-18T08:03:42.983Z,27.90
2018-09-18T08:06:11.579Z,28.00
2018-09-18T08:08:40.252Z,28.00
2018-09-18T08:11:08.906Z,27.90
2018-09-18T08:13:37.545Z,27.70
2018-09-18T08:16:09.766Z,27.40
2018-09-18T08:18:41.961Z,27.40
2018-09-18T08:21:10.678Z,27.50
2018-09-18T08:23:41.495Z,27.60
2018-09-18T08:26:10.128Z,27.80
2018-09-18T08:28:38.737Z,28.00
2018-09-18T08:31:07.397Z,28.10
2018-09-18T08:33:36.996Z,28.30
2018-09-18T08:36:05.655Z,28.40
2018-09-18T08:38:34.451Z,28.60
2018-09-18T08:41:03.344Z,28.70
2018-09-18T08:43:33.784Z,28.80
2018-09-18T08:46:03.439Z,28.80
2018-09-18T08:48:32.792Z,28.80
2018-09-18T08:51:01.987Z,28.90
2018-09-18T08:53:31.656Z,28.90
2018-09-18T08:56:00.339Z,29.00
2018-09-18T08:58:29.216Z,29.00
2018-09-18T09:00:57.859Z,29.10
2018-09-18T09:03:26.603Z,29.10
2018-09-18T09:05:55.376Z,29.20
2018-09-18T09:08:23.963Z,29.10
2018-09-18T09:10:55.297Z,29.10
2018-09-18T09:13:25.575Z,29.10
2018-09-18T09:15:54.240Z,29.10
2018-09-18T09:18:23.072Z,29.10
2018-09-18T09:20:51.731Z,29.20
2018-09-18T09:23:20.377Z,29.10
2018-09-18T09:25:49.039Z,29.00
2018-09-18T09:28:17.722Z,28.80
2018-09-18T09:30:46.384Z,28.60
2018-09-18T09:33:15.112Z,28.30
2018-09-18T09:35:43.703Z,28.10
2018-09-18T09:38:12.462Z,27.90
2018-09-18T09:40:42.364Z,27.90
2018-09-18T09:43:11.955Z,27.90
2018-09-18T09:45:40.664Z,28.10
2018-09-18T09:48:09.388Z,28.20
2018-09-18T09:50:38.053Z,28.30
2018-09-18T09:53:07.649Z,28.40
2018-09-18T09:55:36.408Z,28.50
2018-09-18T09:58:05.121Z,28.70
2018-09-18T10:00:45.645Z,28.80
2018-09-18T10:03:14.703Z,28.80
2018-09-18T10:05:43.612Z,28.90
2018-09-18T10:08:12.329Z,28.90
2018-09-18T10:10:42.003Z,28.70
2018-09-18T10:13:10.635Z,28.60
2018-09-18T10:15:39.433Z,28.50
2018-09-18T10:18:08.187Z,28.40
2018-09-18T10:20:36.904Z,28.40
2018-09-18T10:23:05.555Z,28.40
2018-09-18T10:25:34.230Z,28.50
2018-09-18T10:28:02.932Z,28.70
2018-09-18T10:30:31.872Z,28.80
2018-09-18T10:33:00.565Z,29.00
2018-09-18T10:35:29.247Z,29.10
2018-09-18T10:37:58.023Z,29.20
2018-09-18T10:40:26.675Z,29.30
2018-09-18T10:42:55.504Z,29.30
2018-09-18T10:45:24.188Z,29.30
2018-09-18T10:47:52.912Z,29.30
2018-09-18T10:50:21.524Z,29.40
2018-09-18T10:52:50.420Z,29.50
2018-09-18T10:55:19.131Z,29.50
2018-09-18T10:57:47.794Z,29.60
2018-09-18T11:00:16.753Z,29.60
2018-09-18T11:02:45.451Z,29.50
2018-09-18T11:05:14.399Z,29.40
2018-09-18T11:07:43.126Z,29.40
2018-09-18T11:10:11.792Z,29.40
2018-09-18T11:12:40.421Z,29.40
2018-09-18T11:15:09.151Z,29.30
2018-09-18T11:17:37.796Z,29.40
2018-09-18T11:20:07.479Z,29.50
2018-09-18T11:22:36.353Z,29.50
2018-09-18T11:25:05.591Z,29.50
2018-09-18T11:27:34.292Z,29.40
2018-09-18T11:30:02.920Z,29.40
2018-09-18T11:32:32.599Z,29.40
2018-09-18T11:35:01.418Z,29.50
2018-09-18T11:37:30.076Z,29.60
2018-09-18T11:39:59.816Z,29.80
2018-09-18T11:42:28.539Z,29.80
2018-09-18T11:44:58.178Z,29.80
2018-09-18T11:47:26.884Z,29.80
2018-09-18T11:49:55.760Z,29.80
2018-09-18T11:52:24.416Z,29.90
2018-09-18T11:54:53.119Z,30.00
2018-09-18T11:57:22.739Z,30.20
2018-09-18T11:59:51.511Z,30.30
2018-09-18T12:02:20.140Z,30.20
2018-09-18T12:04:48.945Z,30.20
2018-09-18T12:07:19.320Z,30.20
2018-09-18T12:09:48.995Z,30.20
2018-09-18T12:12:17.627Z,30.10
2018-09-18T12:14:46.269Z,30.00
2018-09-18T12:17:15.062Z,29.80
